sensor_id;sensor_type;location;lat;lon;timestamp;temperature;humidity
17200;DHT22;8716;52.268;20.968;2023-08-20T00:00:19;22.30;99.90
17200;DHT22;8716;52.268;20.968;2023-08-20T00:02:53;22.20;99.90
17200;DHT22;8716;52.268;20.968;2023-08-20T00:05:24;22.20;99.90
17200;DHT22;8716;52.268;20.968;2023-08-20T00:07:52;22.20;99.90
17200;DHT22;8716;52.268;20.968;2023-08-20T00:10:21;22.20;99.90
17200;DHT22;8716;52.268;20.968;2023-08-20T00:12:49;22.20;99.90
17200;DHT22;8716;52.268;20.968;2023-08-20T00:15:19;22.20;99.90
17200;DHT22;8716;52.268;20.968;2023-08-20T00:17:49;22.20;99.90
17200;DHT22;8716;52.268;20.968;2023-08-20T00:20:20;22.10;99.90
17200;DHT22;8716;52.268;20.968;2023-08-20T00:22:49;22.10;99.90
17200;DHT22;8716;52.268;20.968;2023-08-20T00:25:18;22.10;99.90
17200;DHT22;8716;52.268;20.968;2023-08-20T00:27:46;22.10;99.90
17200;DHT22;8716;52.268;20.968;2023-08-20T00:30:15;22.10;99.90
17200;DHT22;8716;52.268;20.968;2023-08-20T00:32:46;22.00;99.90
17200;DHT22;8716;52.268;20.968;2023-08-20T00:35:14;22.00;99.90
17200;DHT22;8716;52.268;20.968;2023-08-20T00:37:42;22.00;99.90
17200;DHT22;8716;52.268;20.968;2023-08-20T00:40:11;22.00;99.90
17200;DHT22;8716;52.268;20.968;2023-08-20T00:42:40;22.00;99.90
17200;DHT22;8716;52.268;20.968;2023-08-20T00:45:09;22.00;99.90
17200;DHT22;8716;52.268;20.968;2023-08-20T00:47:37;21.90;99.90
17200;DHT22;8716;52.268;20.968;2023-08-20T00:50:08;21.90;99.90
17200;DHT22;8716;52.268;20.968;2023-08-20T00:52:38;21.90;99.90
17200;DHT22;8716;52.268;20.968;2023-08-20T00:55:08;21.90;99.90
17200;DHT22;8716;52.268;20.968;2023-08-20T00:57:37;21.80;99.90
17200;DHT22;8716;52.268;20.968;2023-08-20T01:00:07;21.80;99.90
17200;DHT22;8716;52.268;20.968;2023-08-20T01:02:39;21.70;99.90
17200;DHT22;8716;52.268;20.968;2023-08-20T01:05:11;21.70;99.90
17200;DHT22;8716;52.268;20.968;2023-08-20T01:08:00;21.70;99.90
17200;DHT22;8716;52.268;20.968;2023-08-20T01:10:47;21.70;99.90
17200;DHT22;8716;52.268;20.968;2023-08-20T01:13:18;21.70;99.90
17200;DHT22;8716;52.268;20.968;2023-08-20T01:15:47;21.70;99.90
17200;DHT22;8716;52.268;20.968;2023-08-20T01:18:18;21.70;99.90
17200;DHT22;8716;52.268;20.968;2023-08-20T01:20:53;21.70;99.90
17200;DHT22;8716;52.268;20.968;2023-08-20T01:23:51;21.70;99.90
17200;DHT22;8716;52.268;20.968;2023-08-20T01:26:31;21.70;99.90
17200;DHT22;8716;52.268;20.968;2023-08-20T01:29:05;21.60;99.90
17200;DHT22;8716;52.268;20.968;2023-08-20T01:31:33;21.60;99.90
17200;DHT22;8716;52.268;20.968;2023-08-20T01:34:02;21.60;99.90
17200;DHT22;8716;52.268;20.968;2023-08-20T01:36:30;21.60;99.90
17200;DHT22;8716;52.268;20.968;2023-08-20T01:38:59;21.60;99.90
17200;DHT22;8716;52.268;20.968;2023-08-20T01:41:29;21.60;99.90
17200;DHT22;8716;52.268;20.968;2023-08-20T01:43:57;21.50;99.90
17200;DHT22;8716;52.268;20.968;2023-08-20T01:46:26;21.50;99.90
17200;DHT22;8716;52.268;20.968;2023-08-20T01:48:55;21.50;99.90
17200;DHT22;8716;52.268;20.968;2023-08-20T01:51:23;21.50;99.90
17200;DHT22;8716;52.268;20.968;2023-08-20T01:53:52;21.50;99.90
17200;DHT22;8716;52.268;20.968;2023-08-20T01:56:23;21.50;99.90
17200;DHT22;8716;52.268;20.968;2023-08-20T01:58:51;21.40;99.90
17200;DHT22;8716;52.268;20.968;2023-08-20T02:01:19;21.40;99.90
17200;DHT22;8716;52.268;20.968;2023-08-20T02:03:49;21.40;99.90
17200;DHT22;8716;52.268;20.968;2023-08-20T02:06:18;21.40;99.90
17200;DHT22;8716;52.268;20.968;2023-08-20T02:08:46;21.40;99.90
17200;DHT22;8716;52.268;20.968;2023-08-20T02:11:15;21.40;99.90
17200;DHT22;8716;52.268;20.968;2023-08-20T02:13:44;21.40;99.90
17200;DHT22;8716;52.268;20.968;2023-08-20T02:16:13;21.40;99.90
17200;DHT22;8716;52.268;20.968;2023-08-20T02:18:43;21.30;99.90
17200;DHT22;8716;52.268;20.968;2023-08-20T02:21:13;21.30;99.90
17200;DHT22;8716;52.268;20.968;2023-08-20T02:23:41;21.30;99.90
17200;DHT22;8716;52.268;20.968;2023-08-20T02:26:09;21.30;99.90
17200;DHT22;8716;52.268;20.968;2023-08-20T02:28:38;21.30;99.90
17200;DHT22;8716;52.268;20.968;2023-08-20T02:31:06;21.30;99.90
17200;DHT22;8716;52.268;20.968;2023-08-20T02:33:35;21.30;99.90
17200;DHT22;8716;52.268;20.968;2023-08-20T02:36:04;21.30;99.90
17200;DHT22;8716;52.268;20.968;2023-08-20T02:38:34;21.30;99.90
17200;DHT22;8716;52.268;20.968;2023-08-20T02:41:02;21.30;99.90
17200;DHT22;8716;52.268;20.968;2023-08-20T02:43:33;21.30;99.90
17200;DHT22;8716;52.268;20.968;2023-08-20T02:46:01;21.30;99.90
17200;DHT22;8716;52.268;20.968;2023-08-20T02:48:30;21.30;99.90
17200;DHT22;8716;52.268;20.968;2023-08-20T02:50:59;21.30;99.90
17200;DHT22;8716;52.268;20.968;2023-08-20T02:53:27;21.30;99.90
17200;DHT22;8716;52.268;20.968;2023-08-20T02:55:57;21.20;99.90
17200;DHT22;8716;52.268;20.968;2023-08-20T02:58:26;21.20;99.90
17200;DHT22;8716;52.268;20.968;2023-08-20T03:00:54;21.20;99.90
17200;DHT22;8716;52.268;20.968;2023-08-20T03:03:23;21.20;99.90
17200;DHT22;8716;52.268;20.968;2023-08-20T03:05:53;21.20;99.90
17200;DHT22;8716;52.268;20.968;2023-08-20T03:08:22;21.20;99.90
17200;DHT22;8716;52.268;20.968;2023-08-20T03:10:50;21.20;99.90
17200;DHT22;8716;52.268;20.968;2023-08-20T03:13:20;21.20;99.90
17200;DHT22;8716;52.268;20.968;2023-08-20T03:15:48;21.20;99.90
17200;DHT22;8716;52.268;20.968;2023-08-20T03:18:17;21.20;99.90
17200;DHT22;8716;52.268;20.968;2023-08-20T03:20:45;21.20;99.90
17200;DHT22;8716;52.268;20.968;2023-08-20T03:23:13;21.20;99.90
17200;DHT22;8716;52.268;20.968;2023-08-20T03:25:41;21.20;99.90
17200;DHT22;8716;52.268;20.968;2023-08-20T03:28:10;21.30;99.90
17200;DHT22;8716;52.268;20.968;2023-08-20T03:30:39;21.20;99.90
17200;DHT22;8716;52.268;20.968;2023-08-20T03:33:08;21.20;99.90
17200;DHT22;8716;52.268;20.968;2023-08-20T03:35:36;21.20;99.90
17200;DHT22;8716;52.268;20.968;2023-08-20T03:38:06;21.20;99.90
17200;DHT22;8716;52.268;20.968;2023-08-20T03:40:34;21.20;99.90
17200;DHT22;8716;52.268;20.968;2023-08-20T03:43:03;21.20;99.90
17200;DHT22;8716;52.268;20.968;2023-08-20T03:45:31;21.20;99.90
17200;DHT22;8716;52.268;20.968;2023-08-20T03:48:01;21.20;99.90
17200;DHT22;8716;52.268;20.968;2023-08-20T03:50:30;21.30;99.90
17200;DHT22;8716;52.268;20.968;2023-08-20T03:52:58;21.30;99.90
17200;DHT22;8716;52.268;20.968;2023-08-20T03:55:29;21.30;99.90
17200;DHT22;8716;52.268;20.968;2023-08-20T03:57:57;21.30;99.90
17200;DHT22;8716;52.268;20.968;2023-08-20T04:00:26;21.30;99.90
17200;DHT22;8716;52.268;20.968;2023-08-20T04:02:54;21.30;99.90
17200;DHT22;8716;52.268;20.968;2023-08-20T04:05:26;21.30;99.90
17200;DHT22;8716;52.268;20.968;2023-08-20T04:07:55;21.30;99.90
17200;DHT22;8716;52.268;20.968;2023-08-20T04:10:23;21.30;99.90
17200;DHT22;8716;52.268;20.968;2023-08-20T04:12:52;21.40;99.90
17200;DHT22;8716;52.268;20.968;2023-08-20T04:15:22;21.40;99.90
17200;DHT22;8716;52.268;20.968;2023-08-20T04:17:51;21.50;99.90
17200;DHT22;8716;52.268;20.968;2023-08-20T04:20:19;21.50;99.90
17200;DHT22;8716;52.268;20.968;2023-08-20T04:22:49;21.50;99.90
17200;DHT22;8716;52.268;20.968;2023-08-20T04:25:17;21.60;99.90
17200;DHT22;8716;52.268;20.968;2023-08-20T04:27:47;21.60;99.90
17200;DHT22;8716;52.268;20.968;2023-08-20T04:30:16;21.70;99.90
17200;DHT22;8716;52.268;20.968;2023-08-20T04:32:44;21.70;99.90
17200;DHT22;8716;52.268;20.968;2023-08-20T04:35:15;21.80;99.90
17200;DHT22;8716;52.268;20.968;2023-08-20T04:37:44;21.90;99.90
17200;DHT22;8716;52.268;20.968;2023-08-20T04:40:13;21.90;99.90
17200;DHT22;8716;52.268;20.968;2023-08-20T04:42:44;22.00;99.90
17200;DHT22;8716;52.268;20.968;2023-08-20T04:45:14;22.10;99.90
17200;DHT22;8716;52.268;20.968;2023-08-20T04:47:45;22.10;99.90
17200;DHT22;8716;52.268;20.968;2023-08-20T04:50:14;22.20;99.90
17200;DHT22;8716;52.268;20.968;2023-08-20T04:52:46;22.30;99.90
17200;DHT22;8716;52.268;20.968;2023-08-20T04:55:16;22.30;99.90
17200;DHT22;8716;52.268;20.968;2023-08-20T04:57:46;22.40;99.90
17200;DHT22;8716;52.268;20.968;2023-08-20T05:00:14;22.60;99.90
17200;DHT22;8716;52.268;20.968;2023-08-20T05:02:50;22.70;99.90
17200;DHT22;8716;52.268;20.968;2023-08-20T05:05:20;22.80;99.90
17200;DHT22;8716;52.268;20.968;2023-08-20T05:07:51;23.10;99.90
17200;DHT22;8716;52.268;20.968;2023-08-20T05:10:20;23.50;99.90
17200;DHT22;8716;52.268;20.968;2023-08-20T05:12:49;23.90;99.90
17200;DHT22;8716;52.268;20.968;2023-08-20T05:15:18;24.40;99.90
17200;DHT22;8716;52.268;20.968;2023-08-20T05:17:50;25.00;99.90
17200;DHT22;8716;52.268;20.968;2023-08-20T05:20:19;25.60;99.90
17200;DHT22;8716;52.268;20.968;2023-08-20T05:22:47;26.10;99.90
17200;DHT22;8716;52.268;20.968;2023-08-20T05:25:15;26.60;99.90
17200;DHT22;8716;52.268;20.968;2023-08-20T05:27:45;27.00;99.90
17200;DHT22;8716;52.268;20.968;2023-08-20T05:30:16;27.10;99.90
17200;DHT22;8716;52.268;20.968;2023-08-20T05:32:45;27.20;99.90
17200;DHT22;8716;52.268;20.968;2023-08-20T05:35:13;27.60;99.90
17200;DHT22;8716;52.268;20.968;2023-08-20T05:37:43;27.90;99.90
17200;DHT22;8716;52.268;20.968;2023-08-20T05:40:11;28.40;99.90
17200;DHT22;8716;52.268;20.968;2023-08-20T05:42:40;28.90;99.90
17200;DHT22;8716;52.268;20.968;2023-08-20T05:45:10;29.40;99.90
17200;DHT22;8716;52.268;20.968;2023-08-20T05:47:38;29.80;99.90
17200;DHT22;8716;52.268;20.968;2023-08-20T05:50:08;30.30;99.90
17200;DHT22;8716;52.268;20.968;2023-08-20T05:52:36;30.80;99.90
17200;DHT22;8716;52.268;20.968;2023-08-20T05:55:05;31.20;99.90
17200;DHT22;8716;52.268;20.968;2023-08-20T05:57:34;31.60;99.90
17200;DHT22;8716;52.268;20.968;2023-08-20T06:00:05;32.10;99.90
17200;DHT22;8716;52.268;20.968;2023-08-20T06:02:40;32.40;99.90
17200;DHT22;8716;52.268;20.968;2023-08-20T06:05:09;32.70;99.90
17200;DHT22;8716;52.268;20.968;2023-08-20T06:07:39;33.00;99.90
17200;DHT22;8716;52.268;20.968;2023-08-20T06:10:08;33.40;99.90
17200;DHT22;8716;52.268;20.968;2023-08-20T06:12:36;33.70;99.90
17200;DHT22;8716;52.268;20.968;2023-08-20T06:15:06;34.20;99.90
17200;DHT22;8716;52.268;20.968;2023-08-20T06:17:34;34.60;99.90
17200;DHT22;8716;52.268;20.968;2023-08-20T06:20:09;35.00;99.90
17200;DHT22;8716;52.268;20.968;2023-08-20T06:22:38;35.40;99.90
17200;DHT22;8716;52.268;20.968;2023-08-20T06:25:07;35.70;99.90
17200;DHT22;8716;52.268;20.968;2023-08-20T06:27:36;36.10;99.90
17200;DHT22;8716;52.268;20.968;2023-08-20T06:30:07;36.30;99.90
17200;DHT22;8716;52.268;20.968;2023-08-20T06:32:36;36.50;99.90
17200;DHT22;8716;52.268;20.968;2023-08-20T06:35:07;36.70;99.90
17200;DHT22;8716;52.268;20.968;2023-08-20T06:37:39;37.00;99.90
17200;DHT22;8716;52.268;20.968;2023-08-20T06:40:08;37.20;99.90
17200;DHT22;8716;52.268;20.968;2023-08-20T06:42:37;37.40;99.90
17200;DHT22;8716;52.268;20.968;2023-08-20T06:45:07;37.70;99.90
17200;DHT22;8716;52.268;20.968;2023-08-20T06:47:36;37.90;99.90
17200;DHT22;8716;52.268;20.968;2023-08-20T06:50:07;38.30;99.90
17200;DHT22;8716;52.268;20.968;2023-08-20T06:52:36;38.60;99.90
17200;DHT22;8716;52.268;20.968;2023-08-20T06:55:04;39.00;99.80
17200;DHT22;8716;52.268;20.968;2023-08-20T06:57:33;39.60;98.70
17200;DHT22;8716;52.268;20.968;2023-08-20T07:00:02;39.90;97.40
17200;DHT22;8716;52.268;20.968;2023-08-20T07:02:31;40.00;96.50
17200;DHT22;8716;52.268;20.968;2023-08-20T07:05:00;40.10;95.80
17200;DHT22;8716;52.268;20.968;2023-08-20T07:07:29;40.30;95.20
17200;DHT22;8716;52.268;20.968;2023-08-20T07:09:58;40.30;94.70
17200;DHT22;8716;52.268;20.968;2023-08-20T07:12:26;40.20;94.20
17200;DHT22;8716;52.268;20.968;2023-08-20T07:14:54;40.50;93.80
17200;DHT22;8716;52.268;20.968;2023-08-20T07:17:23;40.60;93.50
17200;DHT22;8716;52.268;20.968;2023-08-20T07:19:52;40.60;93.30
17200;DHT22;8716;52.268;20.968;2023-08-20T07:22:20;40.80;93.00
17200;DHT22;8716;52.268;20.968;2023-08-20T07:24:50;41.00;92.40
17200;DHT22;8716;52.268;20.968;2023-08-20T07:27:18;41.20;92.00
17200;DHT22;8716;52.268;20.968;2023-08-20T07:29:46;41.30;91.30
17200;DHT22;8716;52.268;20.968;2023-08-20T07:32:14;41.50;90.70
17200;DHT22;8716;52.268;20.968;2023-08-20T07:34:42;41.70;90.40
17200;DHT22;8716;52.268;20.968;2023-08-20T07:37:12;42.00;89.80
17200;DHT22;8716;52.268;20.968;2023-08-20T07:39:40;42.30;87.80
17200;DHT22;8716;52.268;20.968;2023-08-20T07:42:10;42.40;86.10
17200;DHT22;8716;52.268;20.968;2023-08-20T07:44:39;42.60;85.70
17200;DHT22;8716;52.268;20.968;2023-08-20T07:47:07;42.80;84.70
17200;DHT22;8716;52.268;20.968;2023-08-20T07:49:35;43.50;83.40
17200;DHT22;8716;52.268;20.968;2023-08-20T07:52:04;43.90;80.30
17200;DHT22;8716;52.268;20.968;2023-08-20T07:54:34;44.10;78.60
17200;DHT22;8716;52.268;20.968;2023-08-20T07:57:05;44.40;77.20
17200;DHT22;8716;52.268;20.968;2023-08-20T07:59:34;44.80;75.90
17200;DHT22;8716;52.268;20.968;2023-08-20T08:02:03;44.90;74.80
17200;DHT22;8716;52.268;20.968;2023-08-20T08:04:34;45.20;73.50
17200;DHT22;8716;52.268;20.968;2023-08-20T08:07:02;45.60;71.60
17200;DHT22;8716;52.268;20.968;2023-08-20T08:09:31;45.70;70.30
17200;DHT22;8716;52.268;20.968;2023-08-20T08:12:00;45.90;68.80
17200;DHT22;8716;52.268;20.968;2023-08-20T08:14:31;46.00;67.40
17200;DHT22;8716;52.268;20.968;2023-08-20T08:17:02;46.30;66.10
17200;DHT22;8716;52.268;20.968;2023-08-20T08:19:32;46.40;65.80
17200;DHT22;8716;52.268;20.968;2023-08-20T08:22:01;46.70;64.70
17200;DHT22;8716;52.268;20.968;2023-08-20T08:24:30;46.90;63.00
17200;DHT22;8716;52.268;20.968;2023-08-20T08:26:58;47.10;62.50
17200;DHT22;8716;52.268;20.968;2023-08-20T08:29:27;47.20;60.90
17200;DHT22;8716;52.268;20.968;2023-08-20T08:31:55;47.50;60.20
17200;DHT22;8716;52.268;20.968;2023-08-20T08:34:24;47.80;60.10
17200;DHT22;8716;52.268;20.968;2023-08-20T08:36:53;48.10;59.20
17200;DHT22;8716;52.268;20.968;2023-08-20T08:39:21;48.20;57.00
17200;DHT22;8716;52.268;20.968;2023-08-20T08:41:50;47.90;57.50
17200;DHT22;8716;52.268;20.968;2023-08-20T08:44:21;48.10;57.50
17200;DHT22;8716;52.268;20.968;2023-08-20T08:46:50;48.30;57.10
17200;DHT22;8716;52.268;20.968;2023-08-20T08:49:19;48.40;57.00
17200;DHT22;8716;52.268;20.968;2023-08-20T08:51:51;48.80;56.50
17200;DHT22;8716;52.268;20.968;2023-08-20T08:54:20;49.20;55.50
17200;DHT22;8716;52.268;20.968;2023-08-20T08:56:48;49.60;54.80
17200;DHT22;8716;52.268;20.968;2023-08-20T08:59:17;49.70;54.20
17200;DHT22;8716;52.268;20.968;2023-08-20T09:01:45;49.70;54.30
17200;DHT22;8716;52.268;20.968;2023-08-20T09:04:14;49.70;54.00
17200;DHT22;8716;52.268;20.968;2023-08-20T09:06:46;50.00;53.50
17200;DHT22;8716;52.268;20.968;2023-08-20T09:09:17;50.40;53.50
17200;DHT22;8716;52.268;20.968;2023-08-20T09:11:46;50.70;52.50
17200;DHT22;8716;52.268;20.968;2023-08-20T09:14:23;50.80;52.10
17200;DHT22;8716;52.268;20.968;2023-08-20T09:16:54;51.00;50.50
17200;DHT22;8716;52.268;20.968;2023-08-20T09:19:28;51.20;50.40
17200;DHT22;8716;52.268;20.968;2023-08-20T09:22:00;51.50;50.40
17200;DHT22;8716;52.268;20.968;2023-08-20T09:24:38;51.50;49.20
17200;DHT22;8716;52.268;20.968;2023-08-20T09:27:09;51.50;49.00
17200;DHT22;8716;52.268;20.968;2023-08-20T09:29:44;51.70;48.50
17200;DHT22;8716;52.268;20.968;2023-08-20T09:32:17;51.70;48.30
17200;DHT22;8716;52.268;20.968;2023-08-20T09:34:47;51.80;47.50
17200;DHT22;8716;52.268;20.968;2023-08-20T09:37:17;51.80;48.00
17200;DHT22;8716;52.268;20.968;2023-08-20T09:39:47;51.80;47.80
17200;DHT22;8716;52.268;20.968;2023-08-20T09:42:16;51.70;47.80
17200;DHT22;8716;52.268;20.968;2023-08-20T09:44:46;51.70;47.50
17200;DHT22;8716;52.268;20.968;2023-08-20T09:47:18;51.80;46.90
17200;DHT22;8716;52.268;20.968;2023-08-20T09:49:49;51.50;47.80
17200;DHT22;8716;52.268;20.968;2023-08-20T09:52:24;51.40;47.60
17200;DHT22;8716;52.268;20.968;2023-08-20T09:55:00;51.50;47.70
17200;DHT22;8716;52.268;20.968;2023-08-20T09:57:33;51.70;47.40
17200;DHT22;8716;52.268;20.968;2023-08-20T10:00:05;51.90;46.50
17200;DHT22;8716;52.268;20.968;2023-08-20T10:02:40;52.00;46.20
17200;DHT22;8716;52.268;20.968;2023-08-20T10:05:10;52.10;46.20
17200;DHT22;8716;52.268;20.968;2023-08-20T10:07:39;52.20;46.10
17200;DHT22;8716;52.268;20.968;2023-08-20T10:10:09;52.30;46.00
17200;DHT22;8716;52.268;20.968;2023-08-20T10:12:41;52.00;45.60
17200;DHT22;8716;52.268;20.968;2023-08-20T10:15:11;50.90;46.20
17200;DHT22;8716;52.268;20.968;2023-08-20T10:17:42;50.40;47.00
17200;DHT22;8716;52.268;20.968;2023-08-20T10:20:13;50.30;47.40
17200;DHT22;8716;52.268;20.968;2023-08-20T10:22:44;50.40;47.70
17200;DHT22;8716;52.268;20.968;2023-08-20T10:25:23;50.40;47.50
17200;DHT22;8716;52.268;20.968;2023-08-20T10:27:52;50.30;46.90
17200;DHT22;8716;52.268;20.968;2023-08-20T10:30:25;49.60;47.80
17200;DHT22;8716;52.268;20.968;2023-08-20T10:32:56;49.50;47.40
17200;DHT22;8716;52.268;20.968;2023-08-20T10:35:27;49.50;47.50
17200;DHT22;8716;52.268;20.968;2023-08-20T10:38:01;49.60;47.40
17200;DHT22;8716;52.268;20.968;2023-08-20T10:40:50;49.60;47.80
17200;DHT22;8716;52.268;20.968;2023-08-20T10:43:29;49.40;47.90
17200;DHT22;8716;52.268;20.968;2023-08-20T10:46:05;48.70;47.90
17200;DHT22;8716;52.268;20.968;2023-08-20T10:48:38;47.80;49.10
17200;DHT22;8716;52.268;20.968;2023-08-20T10:51:10;47.30;49.40
17200;DHT22;8716;52.268;20.968;2023-08-20T10:53:39;47.20;50.00
17200;DHT22;8716;52.268;20.968;2023-08-20T10:56:11;46.80;50.60
17200;DHT22;8716;52.268;20.968;2023-08-20T10:58:44;46.70;50.70
17200;DHT22;8716;52.268;20.968;2023-08-20T11:01:22;46.30;50.10
17200;DHT22;8716;52.268;20.968;2023-08-20T11:03:51;45.80;51.00
17200;DHT22;8716;52.268;20.968;2023-08-20T11:06:19;45.60;52.00
17200;DHT22;8716;52.268;20.968;2023-08-20T11:08:47;45.00;51.40
17200;DHT22;8716;52.268;20.968;2023-08-20T11:11:17;44.40;52.70
17200;DHT22;8716;52.268;20.968;2023-08-20T11:13:48;44.10;53.50
17200;DHT22;8716;52.268;20.968;2023-08-20T11:16:17;44.10;53.70
17200;DHT22;8716;52.268;20.968;2023-08-20T11:18:45;43.80;52.90
17200;DHT22;8716;52.268;20.968;2023-08-20T11:21:14;43.50;53.40
17200;DHT22;8716;52.268;20.968;2023-08-20T11:23:42;43.20;53.80
17200;DHT22;8716;52.268;20.968;2023-08-20T11:26:10;42.80;54.30
17200;DHT22;8716;52.268;20.968;2023-08-20T11:28:45;42.50;54.70
17200;DHT22;8716;52.268;20.968;2023-08-20T11:31:13;42.10;55.20
17200;DHT22;8716;52.268;20.968;2023-08-20T11:33:42;42.00;56.30
17200;DHT22;8716;52.268;20.968;2023-08-20T11:36:10;41.80;56.50
17200;DHT22;8716;52.268;20.968;2023-08-20T11:38:39;41.50;56.20
17200;DHT22;8716;52.268;20.968;2023-08-20T11:41:08;41.20;57.00
17200;DHT22;8716;52.268;20.968;2023-08-20T11:43:36;40.90;57.70
17200;DHT22;8716;52.268;20.968;2023-08-20T11:46:12;40.70;57.70
17200;DHT22;8716;52.268;20.968;2023-08-20T11:48:59;40.70;58.30
17200;DHT22;8716;52.268;20.968;2023-08-20T11:51:28;40.80;58.70
17200;DHT22;8716;52.268;20.968;2023-08-20T11:53:57;40.80;58.70
17200;DHT22;8716;52.268;20.968;2023-08-20T11:56:26;40.70;58.90
17200;DHT22;8716;52.268;20.968;2023-08-20T11:58:59;40.60;58.40
17200;DHT22;8716;52.268;20.968;2023-08-20T12:01:31;40.50;58.50
17200;DHT22;8716;52.268;20.968;2023-08-20T12:04:00;40.40;58.40
17200;DHT22;8716;52.268;20.968;2023-08-20T12:06:30;40.50;59.30
17200;DHT22;8716;52.268;20.968;2023-08-20T12:08:58;40.20;59.50
17200;DHT22;8716;52.268;20.968;2023-08-20T12:11:27;39.80;59.70
17200;DHT22;8716;52.268;20.968;2023-08-20T12:13:56;39.50;60.30
17200;DHT22;8716;52.268;20.968;2023-08-20T12:16:24;39.20;60.80
17200;DHT22;8716;52.268;20.968;2023-08-20T12:18:54;39.00;61.40
17200;DHT22;8716;52.268;20.968;2023-08-20T12:21:23;38.80;62.00
17200;DHT22;8716;52.268;20.968;2023-08-20T12:23:51;38.60;62.50
17200;DHT22;8716;52.268;20.968;2023-08-20T12:26:19;38.30;62.80
17200;DHT22;8716;52.268;20.968;2023-08-20T12:28:48;37.90;63.30
17200;DHT22;8716;52.268;20.968;2023-08-20T12:31:16;37.70;64.10
17200;DHT22;8716;52.268;20.968;2023-08-20T12:33:47;37.50;64.50
17200;DHT22;8716;52.268;20.968;2023-08-20T12:36:16;37.30;65.00
17200;DHT22;8716;52.268;20.968;2023-08-20T12:38:44;37.10;65.50
17200;DHT22;8716;52.268;20.968;2023-08-20T12:41:13;36.90;65.50
17200;DHT22;8716;52.268;20.968;2023-08-20T12:43:44;36.80;66.10
17200;DHT22;8716;52.268;20.968;2023-08-20T12:46:12;36.60;66.60
17200;DHT22;8716;52.268;20.968;2023-08-20T12:48:41;36.60;66.60
17200;DHT22;8716;52.268;20.968;2023-08-20T12:51:09;36.30;67.40
17200;DHT22;8716;52.268;20.968;2023-08-20T12:53:42;36.10;68.00
17200;DHT22;8716;52.268;20.968;2023-08-20T12:56:10;35.90;68.50
17200;DHT22;8716;52.268;20.968;2023-08-20T12:58:38;35.80;69.10
17200;DHT22;8716;52.268;20.968;2023-08-20T13:01:07;35.60;70.20
17200;DHT22;8716;52.268;20.968;2023-08-20T13:03:36;35.50;70.20
17200;DHT22;8716;52.268;20.968;2023-08-20T13:06:06;35.40;69.70
17200;DHT22;8716;52.268;20.968;2023-08-20T13:08:34;35.30;70.30
17200;DHT22;8716;52.268;20.968;2023-08-20T13:11:06;35.10;70.50
17200;DHT22;8716;52.268;20.968;2023-08-20T13:13:36;35.00;70.90
17200;DHT22;8716;52.268;20.968;2023-08-20T13:16:05;35.00;70.80
17200;DHT22;8716;52.268;20.968;2023-08-20T13:18:34;35.10;71.00
17200;DHT22;8716;52.268;20.968;2023-08-20T13:21:02;35.00;71.40
17200;DHT22;8716;52.268;20.968;2023-08-20T13:23:31;34.90;71.10
17200;DHT22;8716;52.268;20.968;2023-08-20T13:25:59;34.90;71.50
17200;DHT22;8716;52.268;20.968;2023-08-20T13:28:32;34.80;71.90
17200;DHT22;8716;52.268;20.968;2023-08-20T13:31:00;34.70;72.00
17200;DHT22;8716;52.268;20.968;2023-08-20T13:33:28;34.60;71.90
17200;DHT22;8716;52.268;20.968;2023-08-20T13:35:56;34.50;72.50
17200;DHT22;8716;52.268;20.968;2023-08-20T13:38:25;34.40;72.60
17200;DHT22;8716;52.268;20.968;2023-08-20T13:40:53;34.40;72.80
17200;DHT22;8716;52.268;20.968;2023-08-20T13:43:22;34.40;72.60
17200;DHT22;8716;52.268;20.968;2023-08-20T13:45:52;34.40;72.60
17200;DHT22;8716;52.268;20.968;2023-08-20T13:48:21;34.30;73.00
17200;DHT22;8716;52.268;20.968;2023-08-20T13:50:49;34.20;73.60
17200;DHT22;8716;52.268;20.968;2023-08-20T13:53:17;34.10;73.80
17200;DHT22;8716;52.268;20.968;2023-08-20T13:55:46;34.00;74.60
17200;DHT22;8716;52.268;20.968;2023-08-20T13:58:14;34.10;73.70
17200;DHT22;8716;52.268;20.968;2023-08-20T14:00:43;34.00;73.70
17200;DHT22;8716;52.268;20.968;2023-08-20T14:03:15;34.00;73.90
17200;DHT22;8716;52.268;20.968;2023-08-20T14:05:43;33.90;74.40
17200;DHT22;8716;52.268;20.968;2023-08-20T14:08:12;33.80;74.70
17200;DHT22;8716;52.268;20.968;2023-08-20T14:10:41;33.80;75.00
17200;DHT22;8716;52.268;20.968;2023-08-20T14:13:09;33.70;75.30
17200;DHT22;8716;52.268;20.968;2023-08-20T14:15:39;33.60;75.50
17200;DHT22;8716;52.268;20.968;2023-08-20T14:18:08;33.60;76.10
17200;DHT22;8716;52.268;20.968;2023-08-20T14:20:37;33.50;76.30
17200;DHT22;8716;52.268;20.968;2023-08-20T14:23:06;33.40;76.40
17200;DHT22;8716;52.268;20.968;2023-08-20T14:25:34;33.40;76.50
17200;DHT22;8716;52.268;20.968;2023-08-20T14:28:03;33.30;76.70
17200;DHT22;8716;52.268;20.968;2023-08-20T14:30:31;33.30;76.80
17200;DHT22;8716;52.268;20.968;2023-08-20T14:32:59;33.20;76.60
17200;DHT22;8716;52.268;20.968;2023-08-20T14:35:28;33.10;77.10
17200;DHT22;8716;52.268;20.968;2023-08-20T14:37:58;33.10;77.40
17200;DHT22;8716;52.268;20.968;2023-08-20T14:40:26;33.00;77.40
17200;DHT22;8716;52.268;20.968;2023-08-20T14:42:54;32.90;78.00
17200;DHT22;8716;52.268;20.968;2023-08-20T14:45:23;32.90;77.80
17200;DHT22;8716;52.268;20.968;2023-08-20T14:47:51;32.80;78.10
17200;DHT22;8716;52.268;20.968;2023-08-20T14:50:22;32.80;78.40
17200;DHT22;8716;52.268;20.968;2023-08-20T14:52:50;32.80;78.20
17200;DHT22;8716;52.268;20.968;2023-08-20T14:55:21;32.70;78.40
17200;DHT22;8716;52.268;20.968;2023-08-20T14:57:49;32.80;78.70
17200;DHT22;8716;52.268;20.968;2023-08-20T15:00:21;32.80;78.40
17200;DHT22;8716;52.268;20.968;2023-08-20T15:02:51;32.90;78.60
17200;DHT22;8716;52.268;20.968;2023-08-20T15:05:19;32.90;78.60
17200;DHT22;8716;52.268;20.968;2023-08-20T15:07:49;32.90;78.80
17200;DHT22;8716;52.268;20.968;2023-08-20T15:10:17;32.80;78.80
17200;DHT22;8716;52.268;20.968;2023-08-20T15:12:47;32.80;78.90
17200;DHT22;8716;52.268;20.968;2023-08-20T15:15:16;32.80;79.10
17200;DHT22;8716;52.268;20.968;2023-08-20T15:17:44;32.70;79.40
17200;DHT22;8716;52.268;20.968;2023-08-20T15:20:12;32.70;79.30
17200;DHT22;8716;52.268;20.968;2023-08-20T15:22:42;32.80;79.10
17200;DHT22;8716;52.268;20.968;2023-08-20T15:25:10;32.80;79.10
17200;DHT22;8716;52.268;20.968;2023-08-20T15:27:39;32.90;79.20
17200;DHT22;8716;52.268;20.968;2023-08-20T15:30:09;32.90;80.00
17200;DHT22;8716;52.268;20.968;2023-08-20T15:32:37;32.80;79.40
17200;DHT22;8716;52.268;20.968;2023-08-20T15:35:07;32.80;79.30
17200;DHT22;8716;52.268;20.968;2023-08-20T15:37:36;32.80;78.30
17200;DHT22;8716;52.268;20.968;2023-08-20T15:40:06;32.70;78.80
17200;DHT22;8716;52.268;20.968;2023-08-20T15:42:39;32.70;78.10
17200;DHT22;8716;52.268;20.968;2023-08-20T15:45:10;32.70;78.20